Pekin, IL (61554)

7:44 PM CST on February 09, 2016 (GMT -0600)
Glorianne Acres | | Change Station
CLOSE
Current Station
Personal Weather Station
Location: Pekin, IL
Elevation: 525 ft
Nearby Weather Stations

Elev 525 ft 40.53 °N, 89.63 °W | Updated 20 seconds ago

Overcast
Overcast
15.8 °F
Feels Like 16 °F
N
1.0
Wind Variable Wind from West
Gusts 2.0 mph

Today
High -- | Low -- °F
--% Chance of Precip.
Yesterday
High -- | Low -- °F
Precip. -- in
Pressure 30.09 in
Visibility 4.0 miles
Clouds Scattered Clouds 2300 ft
Overcast 3300 ft
Windchill 16 °F
Dew Point 9 °F
Humidity 75%
Rainfall 0.00 in
Snow Depth Not available.
7:00 AM 5:25 PM
Waxing Crescent, 3% visible
METAR KPIA 100054Z 33009G17KT 4SM -SN SCT023 OVC033 M09/M14 A3005 RMK AO2 SNE2358B43 SLP187 P0000 T10941139
Pressure 30.09 in
Visibility 4.0 miles
Clouds Scattered Clouds 2300 ft
Overcast 3300 ft
Windchill 16 °F
Dew Point 9 °F
Humidity 75%
Rainfall 0.00 in
Snow Depth Not available.
7:00 AM 5:25 PM
Waxing Crescent, 3% visible
METAR KPIA 100054Z 33009G17KT 4SM -SN SCT023 OVC033 M09/M14 A3005 RMK AO2 SNE2358B43 SLP187 P0000 T10941139

10-Day Weather Forecast

Almanac

Astronomy

Feb. 09, 2016 Rise Set
Actual Time
Civil Twilight
Nautical Twilight
Astronomical Twilight
Moon
Length of Visible Light
Length of Day
Tomorrow will be .
, % of the Moon is Illuminated

Today's Extremes

State Highs State Lows

Community

WunderPhotos

Upload Photos

1,891,760 photos uploaded!

WunderBlog® & News

Nearby

Air Quality

  Air Quality AQ Index Pollutant
Not available.

Snow Depth

Station Depth Elevation

Earthquake Activity

City Distance Mag. Time & Date
Minimum magnitude displayed is 2.5.

Coastal Water Temperatures

Place Temperature

Stations

Nearby Weather Stations

Station Location Temp. Windchill Dew Point Humidity Wind Precip. Elev Updated Type
                   

Watches & Warnings

There are currently no watches in effect.